sensor_id;sensor_type;location;lat;lon;timestamp;P1;durP1;ratioP1;P2;durP2;ratioP2
26034;SDS011;13809;48.632;11.576;2022-12-08T00:00:06;13.93;;;11.40;;
26034;SDS011;13809;48.632;11.576;2022-12-08T00:05:10;13.87;;;10.27;;
26034;SDS011;13809;48.632;11.576;2022-12-08T00:10:30;12.40;;;10.47;;
26034;SDS011;13809;48.632;11.576;2022-12-08T00:15:51;12.73;;;9.90;;
26034;SDS011;13809;48.632;11.576;2022-12-08T00:20:54;10.37;;;8.70;;
26034;SDS011;13809;48.632;11.576;2022-12-08T00:26:00;9.53;;;8.57;;
26034;SDS011;13809;48.632;11.576;2022-12-08T00:31:09;8.83;;;7.93;;
26034;SDS011;13809;48.632;11.576;2022-12-08T00:36:12;8.87;;;7.97;;
26034;SDS011;13809;48.632;11.576;2022-12-08T00:41:17;11.57;;;8.83;;
26034;SDS011;13809;48.632;11.576;2022-12-08T00:46:43;8.00;;;7.17;;
26034;SDS011;13809;48.632;11.576;2022-12-08T00:51:46;8.33;;;7.53;;
26034;SDS011;13809;48.632;11.576;2022-12-08T00:56:50;9.73;;;7.67;;
26034;SDS011;13809;48.632;11.576;2022-12-08T01:01:54;7.57;;;6.87;;
26034;SDS011;13809;48.632;11.576;2022-12-08T01:06:58;8.50;;;7.70;;
26034;SDS011;13809;48.632;11.576;2022-12-08T01:12:01;8.93;;;8.03;;
26034;SDS011;13809;48.632;11.576;2022-12-08T01:17:05;9.80;;;7.70;;
26034;SDS011;13809;48.632;11.576;2022-12-08T01:22:08;8.37;;;7.57;;
26034;SDS011;13809;48.632;11.576;2022-12-08T01:27:13;9.10;;;8.20;;
26034;SDS011;13809;48.632;11.576;2022-12-08T01:32:18;8.80;;;8.00;;
26034;SDS011;13809;48.632;11.576;2022-12-08T01:37:21;9.40;;;8.40;;
26034;SDS011;13809;48.632;11.576;2022-12-08T01:42:24;8.80;;;7.73;;
26034;SDS011;13809;48.632;11.576;2022-12-08T01:47:31;9.10;;;8.17;;
26034;SDS011;13809;48.632;11.576;2022-12-08T01:52:38;8.27;;;7.43;;
26034;SDS011;13809;48.632;11.576;2022-12-08T01:57:44;8.30;;;7.33;;
26034;SDS011;13809;48.632;11.576;2022-12-08T02:02:53;7.80;;;7.10;;
26034;SDS011;13809;48.632;11.576;2022-12-08T02:08:00;8.57;;;7.77;;
26034;SDS011;13809;48.632;11.576;2022-12-08T02:13:12;7.77;;;7.07;;
26034;SDS011;13809;48.632;11.576;2022-12-08T02:18:26;8.00;;;7.20;;
26034;SDS011;13809;48.632;11.576;2022-12-08T02:23:42;7.77;;;6.97;;
26034;SDS011;13809;48.632;11.576;2022-12-08T02:28:56;7.17;;;6.47;;
26034;SDS011;13809;48.632;11.576;2022-12-08T02:34:23;7.73;;;6.77;;
26034;SDS011;13809;48.632;11.576;2022-12-08T02:39:34;7.83;;;7.03;;
26034;SDS011;13809;48.632;11.576;2022-12-08T02:44:44;8.63;;;6.93;;
26034;SDS011;13809;48.632;11.576;2022-12-08T02:49:54;7.60;;;6.90;;
26034;SDS011;13809;48.632;11.576;2022-12-08T02:54:59;7.00;;;6.30;;
26034;SDS011;13809;48.632;11.576;2022-12-08T03:00:08;7.63;;;6.93;;
26034;SDS011;13809;48.632;11.576;2022-12-08T03:05:22;7.87;;;6.97;;
26034;SDS011;13809;48.632;11.576;2022-12-08T03:10:39;7.67;;;6.97;;
26034;SDS011;13809;48.632;11.576;2022-12-08T03:15:48;7.90;;;7.10;;
26034;SDS011;13809;48.632;11.576;2022-12-08T03:20:55;6.67;;;6.07;;
26034;SDS011;13809;48.632;11.576;2022-12-08T03:26:00;8.03;;;7.23;;
26034;SDS011;13809;48.632;11.576;2022-12-08T03:31:09;8.00;;;7.30;;
26034;SDS011;13809;48.632;11.576;2022-12-08T03:36:16;7.50;;;6.73;;
26034;SDS011;13809;48.632;11.576;2022-12-08T03:41:21;8.73;;;7.87;;
26034;SDS011;13809;48.632;11.576;2022-12-08T03:46:25;8.40;;;7.60;;
26034;SDS011;13809;48.632;11.576;2022-12-08T03:51:30;10.03;;;7.43;;
26034;SDS011;13809;48.632;11.576;2022-12-08T03:56:34;7.77;;;6.67;;
26034;SDS011;13809;48.632;11.576;2022-12-08T04:01:39;9.03;;;7.87;;
26034;SDS011;13809;48.632;11.576;2022-12-08T04:06:43;8.20;;;7.40;;
26034;SDS011;13809;48.632;11.576;2022-12-08T04:11:47;7.90;;;7.13;;
26034;SDS011;13809;48.632;11.576;2022-12-08T04:16:50;8.63;;;7.83;;
26034;SDS011;13809;48.632;11.576;2022-12-08T04:21:55;9.37;;;8.30;;
26034;SDS011;13809;48.632;11.576;2022-12-08T04:26:58;8.80;;;7.90;;
26034;SDS011;13809;48.632;11.576;2022-12-08T04:32:01;8.80;;;7.90;;
26034;SDS011;13809;48.632;11.576;2022-12-08T04:37:06;8.53;;;7.73;;
26034;SDS011;13809;48.632;11.576;2022-12-08T04:42:09;8.10;;;7.23;;
26034;SDS011;13809;48.632;11.576;2022-12-08T04:47:12;7.50;;;6.70;;
26034;SDS011;13809;48.632;11.576;2022-12-08T04:52:17;9.77;;;8.00;;
26034;SDS011;13809;48.632;11.576;2022-12-08T04:57:20;7.73;;;6.77;;
26034;SDS011;13809;48.632;11.576;2022-12-08T05:02:23;9.20;;;7.97;;
26034;SDS011;13809;48.632;11.576;2022-12-08T05:07:28;8.77;;;7.87;;
26034;SDS011;13809;48.632;11.576;2022-12-08T05:12:32;10.20;;;8.07;;
26034;SDS011;13809;48.632;11.576;2022-12-08T05:17:35;9.83;;;8.23;;
26034;SDS011;13809;48.632;11.576;2022-12-08T05:22:39;8.30;;;7.50;;
26034;SDS011;13809;48.632;11.576;2022-12-08T05:27:43;9.37;;;8.47;;
26034;SDS011;13809;48.632;11.576;2022-12-08T05:32:46;10.10;;;9.10;;
26034;SDS011;13809;48.632;11.576;2022-12-08T05:37:51;10.50;;;9.40;;
26034;SDS011;13809;48.632;11.576;2022-12-08T05:42:54;11.97;;;9.93;;
26034;SDS011;13809;48.632;11.576;2022-12-08T05:47:57;11.27;;;10.07;;
26034;SDS011;13809;48.632;11.576;2022-12-08T05:53:02;10.70;;;9.60;;
26034;SDS011;13809;48.632;11.576;2022-12-08T05:58:05;11.23;;;9.73;;
26034;SDS011;13809;48.632;11.576;2022-12-08T06:03:16;13.17;;;10.80;;
26034;SDS011;13809;48.632;11.576;2022-12-08T06:08:21;10.67;;;9.53;;
26034;SDS011;13809;48.632;11.576;2022-12-08T06:13:25;10.63;;;9.03;;
26034;SDS011;13809;48.632;11.576;2022-12-08T06:18:28;10.03;;;8.90;;
26034;SDS011;13809;48.632;11.576;2022-12-08T06:23:34;9.57;;;6.63;;
26034;SDS011;13809;48.632;11.576;2022-12-08T06:28:39;9.80;;;8.80;;
26034;SDS011;13809;48.632;11.576;2022-12-08T06:33:43;9.47;;;8.57;;
26034;SDS011;13809;48.632;11.576;2022-12-08T06:38:48;8.90;;;8.00;;
26034;SDS011;13809;48.632;11.576;2022-12-08T06:43:54;8.83;;;7.93;;
26034;SDS011;13809;48.632;11.576;2022-12-08T06:49:05;8.83;;;7.93;;
26034;SDS011;13809;48.632;11.576;2022-12-08T06:54:09;8.90;;;7.20;;
26034;SDS011;13809;48.632;11.576;2022-12-08T06:59:13;7.50;;;6.73;;
26034;SDS011;13809;48.632;11.576;2022-12-08T07:04:17;7.93;;;7.07;;
26034;SDS011;13809;48.632;11.576;2022-12-08T07:09:22;9.07;;;7.87;;
26034;SDS011;13809;48.632;11.576;2022-12-08T07:14:26;9.53;;;8.57;;
26034;SDS011;13809;48.632;11.576;2022-12-08T07:19:31;10.40;;;9.40;;
26034;SDS011;13809;48.632;11.576;2022-12-08T07:24:36;12.33;;;11.13;;
26034;SDS011;13809;48.632;11.576;2022-12-08T07:29:40;11.93;;;10.73;;
26034;SDS011;13809;48.632;11.576;2022-12-08T07:34:46;12.37;;;11.17;;
26034;SDS011;13809;48.632;11.576;2022-12-08T07:39:50;10.50;;;9.50;;
26034;SDS011;13809;48.632;11.576;2022-12-08T07:44:54;12.47;;;11.27;;
26034;SDS011;13809;48.632;11.576;2022-12-08T07:49:57;13.60;;;12.20;;
26034;SDS011;13809;48.632;11.576;2022-12-08T07:55:01;17.43;;;14.63;;
26034;SDS011;13809;48.632;11.576;2022-12-08T08:00:05;12.37;;;11.07;;
26034;SDS011;13809;48.632;11.576;2022-12-08T08:05:09;11.93;;;9.67;;
26034;SDS011;13809;48.632;11.576;2022-12-08T08:10:15;11.67;;;10.33;;
26034;SDS011;13809;48.632;11.576;2022-12-08T08:15:18;11.50;;;10.23;;
26034;SDS011;13809;48.632;11.576;2022-12-08T08:20:21;12.10;;;10.23;;
26034;SDS011;13809;48.632;11.576;2022-12-08T08:25:26;11.60;;;10.20;;
26034;SDS011;13809;48.632;11.576;2022-12-08T08:30:29;12.90;;;11.37;;
26034;SDS011;13809;48.632;11.576;2022-12-08T08:35:32;11.73;;;10.57;;
26034;SDS011;13809;48.632;11.576;2022-12-08T08:40:37;12.87;;;9.77;;
26034;SDS011;13809;48.632;11.576;2022-12-08T08:45:40;12.03;;;9.90;;
26034;SDS011;13809;48.632;11.576;2022-12-08T08:50:43;11.67;;;9.50;;
26034;SDS011;13809;48.632;11.576;2022-12-08T08:55:48;10.13;;;9.13;;
26034;SDS011;13809;48.632;11.576;2022-12-08T09:00:52;15.03;;;10.27;;
26034;SDS011;13809;48.632;11.576;2022-12-08T09:05:55;12.50;;;10.23;;
26034;SDS011;13809;48.632;11.576;2022-12-08T09:10:59;11.97;;;9.50;;
26034;SDS011;13809;48.632;11.576;2022-12-08T09:16:03;14.30;;;12.13;;
26034;SDS011;13809;48.632;11.576;2022-12-08T09:21:09;11.63;;;10.50;;
26034;SDS011;13809;48.632;11.576;2022-12-08T09:26:16;13.30;;;12.00;;
26034;SDS011;13809;48.632;11.576;2022-12-08T09:31:23;16.00;;;12.43;;
26034;SDS011;13809;48.632;11.576;2022-12-08T09:36:28;13.43;;;12.13;;
26034;SDS011;13809;48.632;11.576;2022-12-08T09:41:33;16.47;;;12.73;;
26034;SDS011;13809;48.632;11.576;2022-12-08T09:46:48;11.73;;;10.50;;
26034;SDS011;13809;48.632;11.576;2022-12-08T09:51:54;15.33;;;11.77;;
26034;SDS011;13809;48.632;11.576;2022-12-08T09:56:59;13.13;;;11.73;;
26034;SDS011;13809;48.632;11.576;2022-12-08T10:02:10;11.90;;;10.67;;
26034;SDS011;13809;48.632;11.576;2022-12-08T10:07:24;13.37;;;11.73;;
26034;SDS011;13809;48.632;11.576;2022-12-08T10:12:38;13.37;;;11.83;;
26034;SDS011;13809;48.632;11.576;2022-12-08T10:17:49;13.37;;;11.00;;
26034;SDS011;13809;48.632;11.576;2022-12-08T10:22:54;14.63;;;12.67;;
26034;SDS011;13809;48.632;11.576;2022-12-08T10:28:08;13.83;;;12.43;;
26034;SDS011;13809;48.632;11.576;2022-12-08T10:33:13;13.73;;;12.27;;
26034;SDS011;13809;48.632;11.576;2022-12-08T10:38:20;15.37;;;12.83;;
26034;SDS011;13809;48.632;11.576;2022-12-08T10:43:26;14.20;;;11.93;;
26034;SDS011;13809;48.632;11.576;2022-12-08T10:48:29;13.47;;;11.63;;
26034;SDS011;13809;48.632;11.576;2022-12-08T10:53:33;14.47;;;12.97;;
26034;SDS011;13809;48.632;11.576;2022-12-08T10:58:49;12.83;;;11.47;;
26034;SDS011;13809;48.632;11.576;2022-12-08T11:04:11;12.90;;;11.37;;
26034;SDS011;13809;48.632;11.576;2022-12-08T11:09:22;12.77;;;11.47;;
26034;SDS011;13809;48.632;11.576;2022-12-08T11:14:36;12.07;;;10.87;;
26034;SDS011;13809;48.632;11.576;2022-12-08T11:19:53;10.30;;;9.30;;
26034;SDS011;13809;48.632;11.576;2022-12-08T11:25:00;10.63;;;9.53;;
26034;SDS011;13809;48.632;11.576;2022-12-08T11:30:11;10.57;;;9.27;;
26034;SDS011;13809;48.632;11.576;2022-12-08T11:35:22;12.10;;;10.83;;
26034;SDS011;13809;48.632;11.576;2022-12-08T11:40:28;10.20;;;9.23;;
26034;SDS011;13809;48.632;11.576;2022-12-08T11:45:37;14.73;;;12.03;;
26034;SDS011;13809;48.632;11.576;2022-12-08T11:50:44;11.87;;;10.63;;
26034;SDS011;13809;48.632;11.576;2022-12-08T11:55:53;11.87;;;10.77;;
26034;SDS011;13809;48.632;11.576;2022-12-08T12:01:01;12.13;;;10.93;;
26034;SDS011;13809;48.632;11.576;2022-12-08T12:06:13;12.80;;;11.53;;
26034;SDS011;13809;48.632;11.576;2022-12-08T12:11:48;12.03;;;10.83;;
26034;SDS011;13809;48.632;11.576;2022-12-08T12:17:24;11.60;;;10.50;;
26034;SDS011;13809;48.632;11.576;2022-12-08T12:22:41;13.13;;;11.80;;
26034;SDS011;13809;48.632;11.576;2022-12-08T12:27:47;12.50;;;11.30;;
26034;SDS011;13809;48.632;11.576;2022-12-08T12:33:01;12.17;;;10.87;;
26034;SDS011;13809;48.632;11.576;2022-12-08T12:38:23;11.40;;;10.30;;
26034;SDS011;13809;48.632;11.576;2022-12-08T12:44:11;14.20;;;12.53;;
26034;SDS011;13809;48.632;11.576;2022-12-08T12:55:20;13.37;;;12.07;;
26034;SDS011;13809;48.632;11.576;2022-12-08T13:00:53;14.00;;;12.50;;
26034;SDS011;13809;48.632;11.576;2022-12-08T13:06:40;13.67;;;12.37;;
26034;SDS011;13809;48.632;11.576;2022-12-08T13:11:46;13.87;;;12.03;;
26034;SDS011;13809;48.632;11.576;2022-12-08T13:16:53;14.13;;;12.53;;
26034;SDS011;13809;48.632;11.576;2022-12-08T13:21:59;13.03;;;11.87;;
26034;SDS011;13809;48.632;11.576;2022-12-08T13:38:18;15.10;;;13.53;;
26034;SDS011;13809;48.632;11.576;2022-12-08T13:43:29;14.80;;;13.40;;
26034;SDS011;13809;48.632;11.576;2022-12-08T13:48:58;15.07;;;13.57;;
26034;SDS011;13809;48.632;11.576;2022-12-08T13:54:26;13.60;;;12.30;;
26034;SDS011;13809;48.632;11.576;2022-12-08T13:59:53;15.73;;;14.13;;
26034;SDS011;13809;48.632;11.576;2022-12-08T14:05:01;16.10;;;14.40;;
26034;SDS011;13809;48.632;11.576;2022-12-08T14:10:27;18.30;;;16.47;;
26034;SDS011;13809;48.632;11.576;2022-12-08T14:15:32;15.17;;;13.50;;
26034;SDS011;13809;48.632;11.576;2022-12-08T14:20:40;15.97;;;13.27;;
26034;SDS011;13809;48.632;11.576;2022-12-08T14:26:05;15.33;;;13.73;;
26034;SDS011;13809;48.632;11.576;2022-12-08T14:31:08;16.57;;;14.87;;
26034;SDS011;13809;48.632;11.576;2022-12-08T14:36:14;16.50;;;14.67;;
26034;SDS011;13809;48.632;11.576;2022-12-08T14:41:23;15.20;;;13.60;;
26034;SDS011;13809;48.632;11.576;2022-12-08T14:46:27;17.10;;;15.40;;
26034;SDS011;13809;48.632;11.576;2022-12-08T14:51:31;15.23;;;13.67;;
26034;SDS011;13809;48.632;11.576;2022-12-08T14:56:37;16.77;;;14.43;;
26034;SDS011;13809;48.632;11.576;2022-12-08T15:01:42;16.80;;;14.67;;
26034;SDS011;13809;48.632;11.576;2022-12-08T15:06:46;14.47;;;12.97;;
26034;SDS011;13809;48.632;11.576;2022-12-08T15:12:00;14.07;;;11.70;;
26034;SDS011;13809;48.632;11.576;2022-12-08T15:22:29;14.33;;;12.83;;
26034;SDS011;13809;48.632;11.576;2022-12-08T15:27:36;13.03;;;11.70;;
26034;SDS011;13809;48.632;11.576;2022-12-08T15:32:51;15.43;;;13.83;;
26034;SDS011;13809;48.632;11.576;2022-12-08T15:37:56;15.83;;;14.13;;
26034;SDS011;13809;48.632;11.576;2022-12-08T15:43:01;14.43;;;12.97;;
26034;SDS011;13809;48.632;11.576;2022-12-08T15:48:05;16.50;;;14.80;;
26034;SDS011;13809;48.632;11.576;2022-12-08T15:53:08;16.40;;;14.67;;
26034;SDS011;13809;48.632;11.576;2022-12-08T15:58:18;14.70;;;13.17;;
26034;SDS011;13809;48.632;11.576;2022-12-08T16:03:42;15.13;;;13.53;;
26034;SDS011;13809;48.632;11.576;2022-12-08T16:09:06;12.40;;;10.83;;
26034;SDS011;13809;48.632;11.576;2022-12-08T16:14:19;16.00;;;14.10;;
26034;SDS011;13809;48.632;11.576;2022-12-08T16:19:43;14.20;;;12.70;;
26034;SDS011;13809;48.632;11.576;2022-12-08T16:24:51;17.07;;;15.27;;
26034;SDS011;13809;48.632;11.576;2022-12-08T16:29:56;18.30;;;16.20;;
26034;SDS011;13809;48.632;11.576;2022-12-08T16:35:00;18.17;;;16.27;;
26034;SDS011;13809;48.632;11.576;2022-12-08T16:40:04;24.77;;;22.20;;
26034;SDS011;13809;48.632;11.576;2022-12-08T16:45:11;19.03;;;17.03;;
26034;SDS011;13809;48.632;11.576;2022-12-08T16:50:16;35.10;;;31.27;;
26034;SDS011;13809;48.632;11.576;2022-12-08T16:55:21;23.00;;;20.53;;
26034;SDS011;13809;48.632;11.576;2022-12-08T17:00:26;23.17;;;20.70;;
26034;SDS011;13809;48.632;11.576;2022-12-08T17:05:31;18.07;;;16.17;;
26034;SDS011;13809;48.632;11.576;2022-12-08T17:10:36;16.50;;;14.80;;
26034;SDS011;13809;48.632;11.576;2022-12-08T17:15:42;15.63;;;14.03;;
26034;SDS011;13809;48.632;11.576;2022-12-08T17:20:45;14.83;;;13.40;;
26034;SDS011;13809;48.632;11.576;2022-12-08T17:25:55;13.37;;;11.97;;
26034;SDS011;13809;48.632;11.576;2022-12-08T17:31:06;14.00;;;12.60;;
26034;SDS011;13809;48.632;11.576;2022-12-08T17:36:11;13.37;;;12.07;;
26034;SDS011;13809;48.632;11.576;2022-12-08T17:41:16;15.67;;;12.50;;
26034;SDS011;13809;48.632;11.576;2022-12-08T17:46:20;14.77;;;13.20;;
26034;SDS011;13809;48.632;11.576;2022-12-08T17:51:24;14.33;;;12.83;;
26034;SDS011;13809;48.632;11.576;2022-12-08T17:56:27;14.10;;;12.53;;
26034;SDS011;13809;48.632;11.576;2022-12-08T18:01:32;17.17;;;11.93;;
26034;SDS011;13809;48.632;11.576;2022-12-08T18:06:36;14.37;;;12.77;;
26034;SDS011;13809;48.632;11.576;2022-12-08T18:11:40;17.00;;;15.07;;
26034;SDS011;13809;48.632;11.576;2022-12-08T18:16:46;17.47;;;15.00;;
26034;SDS011;13809;48.632;11.576;2022-12-08T18:21:49;16.50;;;14.80;;
26034;SDS011;13809;48.632;11.576;2022-12-08T18:26:52;17.53;;;15.33;;
26034;SDS011;13809;48.632;11.576;2022-12-08T18:31:58;17.00;;;15.20;;
26034;SDS011;13809;48.632;11.576;2022-12-08T18:37:01;16.40;;;14.53;;
26034;SDS011;13809;48.632;11.576;2022-12-08T18:42:04;17.90;;;16.00;;
26034;SDS011;13809;48.632;11.576;2022-12-08T18:47:24;18.37;;;16.37;;
26034;SDS011;13809;48.632;11.576;2022-12-08T18:52:27;16.23;;;14.50;;
26034;SDS011;13809;48.632;11.576;2022-12-08T18:57:32;14.87;;;13.17;;
26034;SDS011;13809;48.632;11.576;2022-12-08T19:02:37;20.87;;;15.77;;
26034;SDS011;13809;48.632;11.576;2022-12-08T19:07:41;16.20;;;14.50;;
26034;SDS011;13809;48.632;11.576;2022-12-08T19:12:47;16.13;;;14.53;;
26034;SDS011;13809;48.632;11.576;2022-12-08T19:17:52;16.83;;;15.10;;
26034;SDS011;13809;48.632;11.576;2022-12-08T19:22:55;15.87;;;14.23;;
26034;SDS011;13809;48.632;11.576;2022-12-08T19:27:58;15.77;;;14.27;;
26034;SDS011;13809;48.632;11.576;2022-12-08T19:33:03;16.10;;;14.50;;
26034;SDS011;13809;48.632;11.576;2022-12-08T19:38:06;16.30;;;14.70;;
26034;SDS011;13809;48.632;11.576;2022-12-08T19:43:12;21.13;;;14.73;;
26034;SDS011;13809;48.632;11.576;2022-12-08T19:48:39;17.63;;;15.87;;
26034;SDS011;13809;48.632;11.576;2022-12-08T19:53:42;55.73;;;36.37;;
26034;SDS011;13809;48.632;11.576;2022-12-08T19:58:48;21.67;;;17.67;;
26034;SDS011;13809;48.632;11.576;2022-12-08T20:03:53;35.83;;;16.43;;
26034;SDS011;13809;48.632;11.576;2022-12-08T20:08:56;21.80;;;16.00;;
26034;SDS011;13809;48.632;11.576;2022-12-08T20:14:00;16.30;;;14.60;;
26034;SDS011;13809;48.632;11.576;2022-12-08T20:19:04;17.90;;;15.67;;
26034;SDS011;13809;48.632;11.576;2022-12-08T20:24:07;17.80;;;15.90;;
26034;SDS011;13809;48.632;11.576;2022-12-08T20:29:11;24.53;;;16.53;;
26034;SDS011;13809;48.632;11.576;2022-12-08T20:34:18;20.80;;;15.80;;
26034;SDS011;13809;48.632;11.576;2022-12-08T20:39:21;17.23;;;14.73;;
26034;SDS011;13809;48.632;11.576;2022-12-08T20:44:25;14.67;;;13.27;;
26034;SDS011;13809;48.632;11.576;2022-12-08T20:49:31;22.67;;;17.23;;
26034;SDS011;13809;48.632;11.576;2022-12-08T20:54:35;15.97;;;14.27;;
26034;SDS011;13809;48.632;11.576;2022-12-08T20:59:38;15.77;;;14.17;;
26034;SDS011;13809;48.632;11.576;2022-12-08T21:04:43;15.47;;;13.87;;
26034;SDS011;13809;48.632;11.576;2022-12-08T21:09:46;17.10;;;14.93;;
26034;SDS011;13809;48.632;11.576;2022-12-08T21:14:50;18.43;;;15.50;;
26034;SDS011;13809;48.632;11.576;2022-12-08T21:19:55;17.73;;;15.83;;
26034;SDS011;13809;48.632;11.576;2022-12-08T21:24:58;24.70;;;16.63;;
26034;SDS011;13809;48.632;11.576;2022-12-08T21:30:01;18.53;;;15.87;;
26034;SDS011;13809;48.632;11.576;2022-12-08T21:35:08;19.20;;;17.13;;
26034;SDS011;13809;48.632;11.576;2022-12-08T21:40:12;22.23;;;17.43;;
26034;SDS011;13809;48.632;11.576;2022-12-08T21:45:16;44.40;;;18.27;;
26034;SDS011;13809;48.632;11.576;2022-12-08T21:50:22;22.50;;;19.10;;
26034;SDS011;13809;48.632;11.576;2022-12-08T21:55:25;21.27;;;16.37;;
26034;SDS011;13809;48.632;11.576;2022-12-08T22:00:28;18.93;;;16.40;;
26034;SDS011;13809;48.632;11.576;2022-12-08T22:05:33;18.17;;;15.87;;
26034;SDS011;13809;48.632;11.576;2022-12-08T22:10:37;18.67;;;16.17;;
26034;SDS011;13809;48.632;11.576;2022-12-08T22:15:41;17.37;;;15.53;;
26034;SDS011;13809;48.632;11.576;2022-12-08T22:20:45;18.17;;;16.23;;
26034;SDS011;13809;48.632;11.576;2022-12-08T22:25:54;16.63;;;14.70;;
26034;SDS011;13809;48.632;11.576;2022-12-08T22:30:58;23.17;;;17.03;;
26034;SDS011;13809;48.632;11.576;2022-12-08T22:36:03;17.40;;;14.67;;
26034;SDS011;13809;48.632;11.576;2022-12-08T22:41:11;16.93;;;15.07;;
26034;SDS011;13809;48.632;11.576;2022-12-08T22:46:15;16.73;;;14.40;;
26034;SDS011;13809;48.632;11.576;2022-12-08T22:51:21;21.73;;;16.77;;
26034;SDS011;13809;48.632;11.576;2022-12-08T22:56:25;18.73;;;16.63;;
26034;SDS011;13809;48.632;11.576;2022-12-08T23:01:28;20.13;;;17.40;;
26034;SDS011;13809;48.632;11.576;2022-12-08T23:06:34;15.70;;;13.80;;
26034;SDS011;13809;48.632;11.576;2022-12-08T23:11:38;21.07;;;16.77;;
26034;SDS011;13809;48.632;11.576;2022-12-08T23:16:41;21.93;;;17.13;;
26034;SDS011;13809;48.632;11.576;2022-12-08T23:21:45;22.10;;;18.83;;
26034;SDS011;13809;48.632;11.576;2022-12-08T23:26:49;21.67;;;17.90;;
26034;SDS011;13809;48.632;11.576;2022-12-08T23:31:52;19.97;;;17.37;;
26034;SDS011;13809;48.632;11.576;2022-12-08T23:36:57;18.27;;;16.03;;
26034;SDS011;13809;48.632;11.576;2022-12-08T23:42:00;18.53;;;15.50;;
26034;SDS011;13809;48.632;11.576;2022-12-08T23:47:04;20.63;;;16.70;;
26034;SDS011;13809;48.632;11.576;2022-12-08T23:52:11;16.47;;;14.67;;
26034;SDS011;13809;48.632;11.576;2022-12-08T23:57:14;14.87;;;13.27;;
